createdAt,value
2022-11-30T00:02:19.029Z,101698.53
2022-11-30T00:04:46.043Z,101693.34
2022-11-30T00:07:12.692Z,101687.56
2022-11-30T00:09:39.080Z,101694.19
2022-11-30T00:12:05.415Z,101690.06
2022-11-30T00:14:32.740Z,101689.03
2022-11-30T00:16:59.224Z,101688.41
2022-11-30T00:19:25.632Z,101689.88
2022-11-30T00:21:52.068Z,101686.53
2022-11-30T00:24:18.503Z,101690.47
2022-11-30T00:26:44.912Z,101692.78
2022-11-30T00:29:11.212Z,101692.09
2022-11-30T00:31:38.106Z,101692.75
2022-11-30T00:34:04.388Z,101690.44
2022-11-30T00:36:30.880Z,101690.25
2022-11-30T00:38:57.297Z,101687.97
2022-11-30T00:41:23.634Z,101692.09
2022-11-30T00:43:50.100Z,101689.00
2022-11-30T00:46:16.607Z,101688.38
2022-11-30T00:48:43.019Z,101686.31
2022-11-30T00:51:09.372Z,101688.38
2022-11-30T00:53:35.727Z,101693.34
2022-11-30T00:56:02.156Z,101691.69
2022-11-30T00:58:28.532Z,101697.47
2022-11-30T01:00:54.970Z,101696.84
2022-11-30T01:03:21.336Z,101700.75
2022-11-30T01:05:47.802Z,101696.00
2022-11-30T01:08:14.071Z,101704.25
2022-11-30T01:10:40.586Z,101702.81
2022-11-30T01:13:06.890Z,101698.69
2022-11-30T01:15:33.231Z,101696.19
2022-11-30T01:17:59.596Z,101701.56
2022-11-30T01:20:26.057Z,101696.59
2022-11-30T01:22:52.585Z,101696.19
2022-11-30T01:25:19.101Z,101704.44
2022-11-30T01:27:45.657Z,101698.66
2022-11-30T01:30:12.125Z,101695.31
2022-11-30T01:32:38.573Z,101707.09
2022-11-30T01:35:04.892Z,101702.13
2022-11-30T01:37:31.222Z,101711.44
2022-11-30T01:39:57.792Z,101708.13
2022-11-30T01:42:24.201Z,101703.16
2022-11-30T01:44:50.477Z,101709.56
2022-11-30T01:47:16.766Z,101707.06
2022-11-30T01:49:43.186Z,101711.81
2022-11-30T01:52:09.565Z,101702.94
2022-11-30T01:54:36.163Z,101712.22
2022-11-30T01:57:02.719Z,101702.72
2022-11-30T01:59:29.118Z,101706.22
2022-11-30T02:01:55.434Z,101701.25
2022-11-30T02:04:22.670Z,101706.81
2022-11-30T02:06:49.260Z,101706.81
2022-11-30T02:09:15.717Z,101710.94
2022-11-30T02:11:42.119Z,101706.56
2022-11-30T02:14:08.436Z,101703.25
2022-11-30T02:16:35.095Z,101711.09
2022-11-30T02:19:01.702Z,101711.50
2022-11-30T02:21:28.230Z,101706.31
2022-11-30T02:23:54.579Z,101707.16
2022-11-30T02:26:21.192Z,101709.22
2022-11-30T02:28:47.532Z,101702.19
2022-11-30T02:31:13.911Z,101713.13
2022-11-30T02:33:40.275Z,101706.94
2022-11-30T02:36:06.725Z,101708.16
2022-11-30T02:38:33.099Z,101705.88
2022-11-30T02:40:59.515Z,101704.03
2022-11-30T02:43:25.797Z,101712.28
2022-11-30T02:45:52.205Z,101707.50
2022-11-30T02:48:18.621Z,101712.88
2022-11-30T02:50:45.046Z,101720.09
2022-11-30T02:53:11.394Z,101716.78
2022-11-30T02:55:37.903Z,101716.16
2022-11-30T02:58:04.260Z,101718.66
2022-11-30T03:00:30.638Z,101714.47
2022-11-30T03:02:57.220Z,101719.03
2022-11-30T03:05:23.567Z,101731.00
2022-11-30T03:07:49.985Z,101725.63
2022-11-30T03:10:16.351Z,101726.88
2022-11-30T03:12:42.734Z,101723.53
2022-11-30T03:15:09.070Z,101727.25
2022-11-30T03:17:35.449Z,101732.63
2022-11-30T03:20:01.865Z,101729.09
2022-11-30T03:22:28.149Z,101730.13
2022-11-30T03:24:54.703Z,101738.56
2022-11-30T03:27:21.050Z,101734.88
2022-11-30T03:29:47.380Z,101740.44
2022-11-30T03:32:13.710Z,101738.13
2022-11-30T03:34:40.172Z,101737.94
2022-11-30T03:37:06.708Z,101737.94
2022-11-30T03:39:33.201Z,101745.16
2022-11-30T03:41:59.528Z,101746.38
2022-11-30T03:44:25.858Z,101748.44
2022-11-30T03:46:52.310Z,101753.16
2022-11-30T03:49:18.849Z,101754.81
2022-11-30T03:51:45.146Z,101755.22
2022-11-30T03:54:11.540Z,101754.38
2022-11-30T03:56:37.864Z,101753.59
2022-11-30T03:59:04.161Z,101762.63
2022-11-30T04:01:30.625Z,101761.81
2022-11-30T04:03:57.019Z,101768.41
2022-11-30T04:06:23.359Z,101761.38
2022-11-30T04:08:49.701Z,101766.72
2022-11-30T04:11:16.011Z,101762.41
2022-11-30T04:13:42.395Z,101760.75
2022-11-30T04:16:08.777Z,101762.78
2022-11-30T04:18:35.132Z,101762.59
2022-11-30T04:21:01.516Z,101766.31
2022-11-30T04:23:27.859Z,101760.31
2022-11-30T04:25:54.410Z,101767.53
2022-11-30T04:28:20.789Z,101767.53
2022-11-30T04:30:47.256Z,101768.09
2022-11-30T04:33:13.604Z,101767.28
2022-11-30T04:35:39.908Z,101769.31
2022-11-30T04:38:06.216Z,101763.34
2022-11-30T04:40:32.656Z,101757.13
2022-11-30T04:42:59.269Z,101767.03
2022-11-30T04:45:25.812Z,101773.41
2022-11-30T04:47:52.200Z,101769.72
2022-11-30T04:50:18.586Z,101783.53
2022-11-30T04:52:44.911Z,101784.31
2022-11-30T04:55:11.285Z,101790.91
2022-11-30T04:57:37.584Z,101796.28
2022-11-30T05:00:04.148Z,101795.47
2022-11-30T05:02:30.551Z,101798.34
2022-11-30T05:04:56.917Z,101796.88
2022-11-30T05:07:23.249Z,101797.50
2022-11-30T05:09:49.678Z,101794.19
2022-11-30T05:12:16.055Z,101801.41
2022-11-30T05:14:42.502Z,101805.09
2022-11-30T05:17:08.910Z,101798.72
2022-11-30T05:19:35.222Z,101796.22
2022-11-30T05:22:01.544Z,101806.94
2022-11-30T05:24:27.957Z,101806.13
2022-11-30T05:26:54.368Z,101810.03
2022-11-30T05:29:20.880Z,101817.06
2022-11-30T05:31:47.281Z,101813.53
2022-11-30T05:34:13.577Z,101813.09
2022-11-30T05:36:39.926Z,101814.94
2022-11-30T05:39:06.461Z,101820.31
2022-11-30T05:41:32.865Z,101818.66
2022-11-30T05:43:59.203Z,101828.75
2022-11-30T05:46:25.622Z,101831.63
2022-11-30T05:48:52.344Z,101830.78
2022-11-30T05:51:18.687Z,101836.31
2022-11-30T05:53:45.037Z,101827.47
2022-11-30T05:56:11.372Z,101830.34
2022-11-30T05:58:37.685Z,101831.38
2022-11-30T06:01:04.122Z,101834.06
2022-11-30T06:03:30.550Z,101833.22
2022-11-30T06:05:57.003Z,101839.19
2022-11-30T06:08:23.417Z,101832.38
2022-11-30T06:10:49.777Z,101838.75
2022-11-30T06:13:16.233Z,101835.25
2022-11-30T06:15:42.630Z,101843.31
2022-11-30T06:18:09.049Z,101846.19
2022-11-30T06:20:35.365Z,101844.69
2022-11-30T06:23:01.682Z,101834.94
2022-11-30T06:25:28.208Z,101836.63
2022-11-30T06:27:54.558Z,101838.47
2022-11-30T06:30:21.031Z,101833.28
2022-11-30T06:32:47.454Z,101833.94
2022-11-30T06:35:13.791Z,101838.84
2022-11-30T06:37:40.216Z,101839.88
2022-11-30T06:40:07.723Z,101839.03
2022-11-30T06:42:34.615Z,101837.56
2022-11-30T06:45:01.001Z,101840.25
2022-11-30T06:47:27.415Z,101844.78
2022-11-30T06:49:54.036Z,101845.78
2022-11-30T06:52:20.374Z,101851.16
2022-11-30T06:54:47.005Z,101847.41
2022-11-30T06:57:13.782Z,101850.72
2022-11-30T06:59:40.196Z,101847.00
2022-11-30T07:02:10.745Z,101858.56
2022-11-30T07:04:39.351Z,101852.34
2022-11-30T07:07:05.703Z,101855.88
2022-11-30T07:09:32.209Z,101864.78
2022-11-30T07:11:58.497Z,101873.00
2022-11-30T07:14:24.855Z,101869.66
2022-11-30T07:16:51.216Z,101866.97
2022-11-30T07:19:17.648Z,101869.66
2022-11-30T07:21:43.971Z,101871.72
2022-11-30T07:24:10.321Z,101869.03
2022-11-30T07:26:36.681Z,101882.44
2022-11-30T07:29:03.116Z,101879.94
2022-11-30T07:31:29.416Z,101883.66
2022-11-30T07:33:55.735Z,101894.38
2022-11-30T07:36:22.076Z,101896.19
2022-11-30T07:38:48.521Z,101896.38
2022-11-30T07:41:14.878Z,101894.72
2022-11-30T07:43:41.236Z,101902.94
2022-11-30T07:46:07.765Z,101899.47
2022-11-30T07:48:34.273Z,101899.66
2022-11-30T07:51:00.681Z,101903.31
2022-11-30T07:53:27.019Z,101903.31
2022-11-30T07:55:56.959Z,101905.81
2022-11-30T07:58:23.449Z,101911.19
2022-11-30T08:00:49.971Z,101912.88
2022-11-30T08:03:16.376Z,101918.41
2022-11-30T08:05:42.672Z,101915.72
2022-11-30T08:08:09.050Z,101916.53
2022-11-30T08:10:35.349Z,101920.06
2022-11-30T08:13:01.702Z,101922.91
2022-11-30T08:15:32.551Z,101921.28
2022-11-30T08:17:59.885Z,101922.91
2022-11-30T08:20:26.389Z,101925.97
2022-11-30T08:22:52.792Z,101928.94
2022-11-30T08:25:19.166Z,101929.50
2022-11-30T08:27:45.846Z,101926.81
2022-11-30T08:30:12.121Z,101933.00
2022-11-30T08:32:38.693Z,101935.03
2022-11-30T08:35:05.191Z,101936.69
2022-11-30T08:37:31.812Z,101940.38
2022-11-30T08:39:58.646Z,101938.75
2022-11-30T08:42:24.933Z,101941.22
2022-11-30T08:44:51.258Z,101940.22
2022-11-30T08:47:18.090Z,101936.31
2022-11-30T08:49:44.576Z,101937.88
2022-11-30T08:52:18.775Z,101945.94
2022-11-30T08:54:46.143Z,101947.81
2022-11-30T08:57:12.995Z,101950.47
2022-11-30T08:59:39.480Z,101955.84
2022-11-30T09:02:06.242Z,101953.78
2022-11-30T09:04:32.681Z,101950.66
2022-11-30T09:06:59.384Z,101951.69
2022-11-30T09:09:25.910Z,101956.19
2022-11-30T09:11:52.316Z,101963.78
2022-11-30T09:14:18.673Z,101964.59
2022-11-30T09:16:45.112Z,101968.13
2022-11-30T09:19:11.435Z,101968.75
2022-11-30T09:21:38.084Z,101970.31
2022-11-30T09:24:04.413Z,101967.09
2022-11-30T09:26:30.757Z,101970.97
2022-11-30T09:28:57.065Z,101968.66
2022-11-30T09:31:23.390Z,101972.00
2022-11-30T09:33:49.728Z,101968.66
2022-11-30T09:36:15.996Z,101966.38
2022-11-30T09:38:42.273Z,101971.53
2022-11-30T09:41:08.637Z,101969.50
2022-11-30T09:43:35.025Z,101973.41
2022-11-30T09:46:01.441Z,101969.06
2022-11-30T09:48:27.873Z,101975.22
2022-11-30T09:50:54.342Z,101968.22
2022-11-30T09:53:24.669Z,101971.44
2022-11-30T09:55:55.472Z,101966.06
2022-11-30T09:58:22.183Z,101966.75
2022-11-30T10:00:48.552Z,101961.03
2022-11-30T10:03:14.973Z,101972.28
2022-11-30T10:05:41.357Z,101961.19
2022-11-30T10:08:07.770Z,101963.69
2022-11-30T10:10:34.329Z,101967.53
2022-11-30T10:13:00.800Z,101965.06
2022-11-30T10:15:27.371Z,101965.72
2022-11-30T10:17:54.049Z,101963.38
2022-11-30T10:20:20.410Z,101968.75
2022-11-30T10:22:46.827Z,101963.97
2022-11-30T10:25:13.212Z,101955.25
2022-11-30T10:27:39.565Z,101965.78
2022-11-30T10:30:05.861Z,101967.66
2022-11-30T10:32:32.179Z,101964.69
2022-11-30T10:34:58.594Z,101976.22
2022-11-30T10:37:25.009Z,101974.09
2022-11-30T10:39:51.397Z,101972.53
2022-11-30T10:42:17.936Z,101979.19
2022-11-30T10:44:44.550Z,101974.69
2022-11-30T10:47:11.003Z,101968.13
2022-11-30T10:49:37.291Z,101978.66
2022-11-30T10:52:03.584Z,101978.47
2022-11-30T10:54:30.205Z,101977.81
2022-11-30T10:56:56.536Z,101980.66
2022-11-30T10:59:22.862Z,101987.06
2022-11-30T11:01:49.224Z,101981.06
2022-11-30T11:04:15.688Z,101971.16
2022-11-30T11:06:42.202Z,101969.31
2022-11-30T11:09:08.773Z,101970.63
2022-11-30T11:11:35.127Z,101969.13
2022-11-30T11:14:01.474Z,101976.69
2022-11-30T11:16:27.828Z,101976.69
2022-11-30T11:18:54.281Z,101982.63
2022-11-30T11:21:20.577Z,101987.41
2022-11-30T11:23:46.908Z,101988.59
2022-11-30T11:26:13.284Z,101988.59
2022-11-30T11:28:39.593Z,101988.16
2022-11-30T11:31:05.894Z,101981.31
2022-11-30T11:33:32.303Z,101986.19
2022-11-30T11:35:58.696Z,101983.72
2022-11-30T11:38:24.947Z,101981.84
2022-11-30T11:40:51.274Z,101981.84
2022-11-30T11:43:17.748Z,101977.50
2022-11-30T11:45:44.146Z,101982.22
2022-11-30T11:48:12.737Z,101980.09
2022-11-30T11:53:25.751Z,101985.91
2022-11-30T11:56:00.697Z,101992.47
2022-11-30T11:58:27.046Z,101997.00
2022-11-30T12:01:05.762Z,101996.16
2022-11-30T12:03:39.988Z,101999.38
2022-11-30T12:06:06.537Z,101992.34
2022-11-30T12:08:33.113Z,101993.19
2022-11-30T12:10:59.480Z,101987.00
2022-11-30T12:13:25.794Z,102001.22
2022-11-30T12:15:52.168Z,101994.41
2022-11-30T12:18:23.775Z,102003.06
2022-11-30T12:20:50.634Z,101999.38
2022-11-30T12:23:16.999Z,101990.53
2022-11-30T12:25:43.349Z,101985.78
2022-11-30T12:28:09.899Z,101988.47
2022-11-30T12:30:36.347Z,101986.47
2022-11-30T12:33:02.887Z,101991.66
2022-11-30T12:35:29.333Z,101987.09
2022-11-30T12:37:55.689Z,101993.47
2022-11-30T12:40:21.963Z,101989.31
2022-11-30T12:42:48.216Z,101990.81
2022-11-30T12:45:14.529Z,102006.41
2022-11-30T12:47:40.937Z,102007.59
2022-11-30T12:50:07.244Z,101998.25
2022-11-30T12:52:33.645Z,102000.94
2022-11-30T12:54:59.920Z,102008.13
2022-11-30T12:57:26.209Z,101996.56
2022-11-30T12:59:52.642Z,101996.06
2022-11-30T13:02:19.074Z,101998.56
2022-11-30T13:04:45.663Z,101999.38
2022-11-30T13:07:12.319Z,101999.47
2022-11-30T13:09:38.609Z,102002.03
2022-11-30T13:12:04.954Z,102008.06
2022-11-30T13:14:31.291Z,102004.25
2022-11-30T13:16:57.785Z,102002.25
2022-11-30T13:19:24.116Z,102013.94
2022-11-30T13:21:50.476Z,102009.78
2022-11-30T13:24:16.834Z,102003.41
2022-11-30T13:26:43.175Z,102007.00
2022-11-30T13:29:09.564Z,102007.00
2022-11-30T13:31:36.106Z,102004.31
2022-11-30T13:34:02.509Z,102017.06
2022-11-30T13:36:28.896Z,102004.50
2022-11-30T13:38:55.349Z,102013.19
2022-11-30T13:41:21.854Z,102009.69
2022-11-30T13:43:48.345Z,102015.88
2022-11-30T13:46:14.936Z,102009.69
2022-11-30T13:48:41.363Z,102016.34
2022-11-30T13:51:07.736Z,102013.66
2022-11-30T13:53:34.106Z,102017.53
2022-11-30T13:56:00.741Z,102015.69
2022-11-30T13:58:27.163Z,102014.00
2022-11-30T14:00:53.656Z,102013.19
2022-11-30T14:03:20.164Z,102010.34
2022-11-30T14:05:46.907Z,102006.19
2022-11-30T14:08:13.337Z,102004.69
2022-11-30T14:10:39.798Z,102004.88
2022-11-30T14:13:06.310Z,102002.66
2022-11-30T14:15:32.690Z,102004.50
2022-11-30T14:17:58.998Z,102016.22
2022-11-30T14:20:25.444Z,102015.22
2022-11-30T14:22:51.760Z,102013.09
2022-11-30T14:25:18.025Z,102020.28
2022-11-30T14:27:44.369Z,102024.44
2022-11-30T14:30:10.878Z,102016.41
2022-11-30T14:32:37.177Z,102016.41
2022-11-30T14:35:03.577Z,102027.13
2022-11-30T14:37:29.835Z,102018.44
2022-11-30T14:39:56.230Z,102023.13
2022-11-30T14:42:22.560Z,102019.94
2022-11-30T14:44:49.061Z,102015.59
2022-11-30T14:47:15.477Z,102014.28
2022-11-30T14:49:42.387Z,102015.94
2022-11-30T14:52:08.760Z,102017.06
2022-11-30T14:54:35.153Z,102014.22
2022-11-30T14:57:01.505Z,102015.59
2022-11-30T14:59:27.849Z,102016.41
2022-11-30T15:01:54.488Z,102010.03
2022-11-30T15:04:21.021Z,102011.44
2022-11-30T15:06:47.300Z,102008.53
2022-11-30T15:09:13.645Z,102012.00
2022-11-30T15:11:39.941Z,102022.78
2022-11-30T15:14:06.342Z,102019.25
2022-11-30T15:16:32.733Z,102023.25
2022-11-30T15:18:59.128Z,102019.75
2022-11-30T15:21:25.649Z,102016.78
2022-11-30T15:23:52.039Z,102022.94
2022-11-30T15:26:18.536Z,102025.47
2022-11-30T15:28:44.871Z,102027.84
2022-11-30T15:31:11.200Z,102022.94
2022-11-30T15:33:37.589Z,102028.66
2022-11-30T15:36:32.490Z,102029.22
2022-11-30T15:38:50.664Z,102023.84
2022-11-30T15:41:17.165Z,102033.38
2022-11-30T15:43:43.639Z,102036.91
2022-11-30T15:46:10.113Z,102030.22
2022-11-30T15:48:36.477Z,102027.56
2022-11-30T15:51:02.815Z,102039.25
2022-11-30T15:53:29.140Z,102041.09
2022-11-30T15:55:55.443Z,102044.44
2022-11-30T15:58:21.742Z,102050.44
2022-11-30T16:00:48.124Z,102043.63
2022-11-30T16:03:14.631Z,102045.63
2022-11-30T16:05:41.106Z,102044.44
2022-11-30T16:08:07.910Z,102039.25
2022-11-30T16:10:34.236Z,102047.47
2022-11-30T16:13:00.541Z,102043.78
2022-11-30T16:15:26.853Z,102041.47
2022-11-30T16:17:53.230Z,102045.44
2022-11-30T16:20:19.604Z,102048.97
2022-11-30T16:22:45.953Z,102049.13
2022-11-30T16:25:12.455Z,102046.47
2022-11-30T16:27:38.808Z,102054.50
2022-11-30T16:30:05.054Z,102054.16
2022-11-30T16:32:31.347Z,102062.53
2022-11-30T16:34:57.665Z,102068.69
2022-11-30T16:37:23.941Z,102056.00
2022-11-30T16:39:50.613Z,102058.50
2022-11-30T16:42:17.158Z,102057.19
2022-11-30T16:44:43.499Z,102062.19
2022-11-30T16:47:10.365Z,102057.19
2022-11-30T16:49:36.714Z,102063.38
2022-11-30T16:52:03.834Z,102060.03
2022-11-30T16:54:30.481Z,102052.47
2022-11-30T16:56:56.780Z,102054.34
2022-11-30T16:59:23.095Z,102059.03
2022-11-30T17:01:49.474Z,102054.69
2022-11-30T17:04:15.849Z,102055.53
2022-11-30T17:06:42.127Z,102055.03
2022-11-30T17:09:08.436Z,102059.56
2022-11-30T17:11:34.794Z,102066.75
2022-11-30T17:14:01.310Z,102066.75
2022-11-30T17:16:27.808Z,102072.09
2022-11-30T17:18:54.365Z,102074.94
2022-11-30T17:21:20.745Z,102080.13
2022-11-30T17:23:47.104Z,102084.63
2022-11-30T17:26:13.449Z,102082.16
2022-11-30T17:28:39.799Z,102085.81
2022-11-30T17:31:06.316Z,102084.84
2022-11-30T17:33:32.630Z,102090.38
2022-11-30T17:35:58.945Z,102089.69
2022-11-30T17:38:25.259Z,102097.19
2022-11-30T17:40:51.520Z,102094.88
2022-11-30T17:43:17.850Z,102100.22
2022-11-30T17:45:44.220Z,102099.41
2022-11-30T17:48:10.575Z,102104.75
2022-11-30T17:50:36.972Z,102105.56
2022-11-30T17:53:03.349Z,102107.44
2022-11-30T17:55:29.703Z,102112.59
2022-11-30T17:57:56.061Z,102114.63
2022-11-30T18:00:22.488Z,102115.63
2022-11-30T18:02:48.935Z,102119.63
2022-11-30T18:05:15.355Z,102116.44
2022-11-30T18:07:42.061Z,102118.78
2022-11-30T18:10:08.466Z,102114.28
2022-11-30T18:12:34.865Z,102119.97
2022-11-30T18:15:01.307Z,102122.47
2022-11-30T18:17:27.644Z,102120.47
2022-11-30T18:19:54.299Z,102124.84
2022-11-30T18:22:20.752Z,102123.84
2022-11-30T18:24:47.340Z,102129.81
2022-11-30T18:27:13.944Z,102126.84
2022-11-30T18:29:40.378Z,102122.34
2022-11-30T18:32:06.836Z,102131.19
2022-11-30T18:34:33.384Z,102134.41
2022-11-30T18:36:59.772Z,102130.88
2022-11-30T18:39:26.165Z,102131.22
2022-11-30T18:41:52.489Z,102136.22
2022-11-30T18:44:18.807Z,102132.19
2022-11-30T18:46:45.180Z,102137.72
2022-11-30T18:49:11.868Z,102135.22
2022-11-30T18:51:38.269Z,102135.22
2022-11-30T18:54:04.617Z,102129.69
2022-11-30T18:56:30.911Z,102138.25
2022-11-30T18:58:57.381Z,102139.06
2022-11-30T19:01:23.886Z,102142.59
2022-11-30T19:03:50.246Z,102144.44
2022-11-30T19:06:16.666Z,102144.59
2022-11-30T19:08:42.992Z,102142.59
2022-11-30T19:11:09.264Z,102154.31
2022-11-30T19:13:35.554Z,102151.47
2022-11-30T19:16:01.928Z,102154.97
2022-11-30T19:18:28.299Z,102150.47
2022-11-30T19:20:54.632Z,102149.28
2022-11-30T19:23:20.953Z,102145.28
2022-11-30T19:25:47.340Z,102150.97
2022-11-30T19:28:14.037Z,102147.47
2022-11-30T19:30:40.577Z,102158.81
2022-11-30T19:33:06.913Z,102160.66
2022-11-30T19:35:33.406Z,102157.97
2022-11-30T19:37:59.718Z,102161.66
2022-11-30T19:40:26.050Z,102161.16
2022-11-30T19:42:52.479Z,102175.41
2022-11-30T19:45:18.875Z,102168.03
2022-11-30T19:47:45.164Z,102168.69
2022-11-30T19:50:11.599Z,102175.72
2022-11-30T19:52:38.067Z,102175.88
2022-11-30T19:55:04.541Z,102176.06
2022-11-30T19:57:30.871Z,102171.19
2022-11-30T19:59:57.196Z,102183.91
2022-11-30T20:02:23.561Z,102183.22
2022-11-30T20:04:49.995Z,102184.56
2022-11-30T20:07:16.433Z,102180.06
2022-11-30T20:09:42.789Z,102180.75
2022-11-30T20:12:09.176Z,102185.91
2022-11-30T20:14:35.551Z,102194.31
2022-11-30T20:17:01.902Z,102193.28
2022-11-30T20:19:28.475Z,102187.09
2022-11-30T20:21:54.727Z,102195.13
2022-11-30T20:24:21.032Z,102199.81
2022-11-30T20:26:47.365Z,102201.97
2022-11-30T20:29:13.898Z,102198.16
2022-11-30T20:31:40.176Z,102202.81
2022-11-30T20:34:06.479Z,102205.16
2022-11-30T20:36:32.796Z,102197.63
2022-11-30T20:38:59.126Z,102201.47
2022-11-30T20:41:25.657Z,102201.34
2022-11-30T20:43:52.315Z,102194.81
2022-11-30T20:46:18.768Z,102203.16
2022-11-30T20:48:45.751Z,102204.66
2022-11-30T20:51:30.301Z,102206.34
2022-11-30T20:53:57.664Z,102204.66
2022-11-30T20:56:24.153Z,102197.31
2022-11-30T20:58:50.606Z,102195.81
2022-11-30T21:01:16.981Z,102195.81
2022-11-30T21:03:43.371Z,102193.13
2022-11-30T21:06:09.696Z,102194.81
2022-11-30T21:08:36.067Z,102196.47
2022-11-30T21:11:02.830Z,102191.78
2022-11-30T21:13:29.193Z,102191.13
2022-11-30T21:15:55.627Z,102189.97
2022-11-30T21:18:22.088Z,102198.81
2022-11-30T21:20:48.388Z,102202.34
2022-11-30T21:23:14.744Z,102203.69
2022-11-30T21:25:41.115Z,102209.03
2022-11-30T21:28:07.841Z,102211.38
2022-11-30T21:30:34.305Z,102211.56
2022-11-30T21:33:00.587Z,102211.56
2022-11-30T21:35:26.999Z,102217.88
2022-11-30T21:37:53.546Z,102212.53
2022-11-30T21:40:19.836Z,102212.38
2022-11-30T21:42:46.112Z,102211.56
2022-11-30T21:45:12.493Z,102206.88
2022-11-30T21:47:38.865Z,102212.22
2022-11-30T21:50:05.201Z,102211.72
2022-11-30T21:52:31.608Z,102203.53
2022-11-30T21:54:57.948Z,102211.88
2022-11-30T21:57:24.379Z,102214.88
2022-11-30T21:59:50.889Z,102209.72
2022-11-30T22:02:17.439Z,102213.53
2022-11-30T22:04:44.172Z,102209.22
2022-11-30T22:07:10.456Z,102206.22
2022-11-30T22:09:36.743Z,102206.88
2022-11-30T22:12:03.245Z,102210.88
2022-11-30T22:14:29.776Z,102212.56
2022-11-30T22:16:56.153Z,102203.38
2022-11-30T22:19:22.472Z,102203.88
2022-11-30T22:21:50.419Z,102201.19
2022-11-30T22:24:16.930Z,102204.72
2022-11-30T22:26:43.295Z,102199.38
2022-11-30T22:29:09.745Z,102196.88
2022-11-30T22:31:36.144Z,102200.19
2022-11-30T22:34:02.492Z,102198.53
2022-11-30T22:36:28.882Z,102198.19
2022-11-30T22:38:55.228Z,102197.69
2022-11-30T22:41:21.552Z,102196.53
2022-11-30T22:43:47.871Z,102200.19
2022-11-30T22:46:14.221Z,102198.53
2022-11-30T22:48:40.612Z,102204.19
2022-11-30T22:51:07.047Z,102203.22
2022-11-30T22:53:33.619Z,102212.06
2022-11-30T22:56:00.074Z,102206.22
2022-11-30T22:58:26.624Z,102200.34
2022-11-30T23:00:53.062Z,102210.56
2022-11-30T23:03:19.688Z,102204.03
2022-11-30T23:05:46.105Z,102204.72
2022-11-30T23:08:12.770Z,102201.19
2022-11-30T23:10:39.425Z,102201.38
2022-11-30T23:13:05.874Z,102198.69
2022-11-30T23:15:32.404Z,102197.03
2022-11-30T23:17:58.987Z,102197.19
2022-11-30T23:20:25.323Z,102194.03
2022-11-30T23:22:51.648Z,102200.88
2022-11-30T23:25:18.082Z,102192.69
2022-11-30T23:27:44.394Z,102197.88
2022-11-30T23:30:10.831Z,102187.50
2022-11-30T23:32:37.198Z,102189.84
2022-11-30T23:35:03.709Z,102184.50
2022-11-30T23:37:30.187Z,102180.66
2022-11-30T23:39:56.474Z,102188.69
2022-11-30T23:42:22.780Z,102177.16
2022-11-30T23:44:49.100Z,102180.50
2022-11-30T23:47:18.492Z,102177.16
2022-11-30T23:49:45.183Z,102185.34
2022-11-30T23:52:11.728Z,102178.16
2022-11-30T23:54:38.196Z,102178.81
2022-11-30T23:57:04.705Z,102185.16
2022-11-30T23:59:31.245Z,102183.34
